Time;durP1;ratioP1;P1;durP2;ratioP2;P2;SDS_P1;SDS_P2;PMS_P1;PMS_P2;Temp;Humidity;BMP_temperature;BMP_pressure;BME280_temperature;BME280_humidity;BME280_pressure;Samples;Min_cycle;Max_cycle;Signal;HPM_P1;HPM_P2
2022/07/23 04:22:45;;;;;;;14.20;6.97;;;;;;;21.28;67.29;100216.22;5088801;28;20332;-57
2022/07/23 04:25:11;;;;;;;10.82;6.72;;;;;;;21.30;67.51;100219.50;5070763;28;20530;-60
2022/07/23 04:27:37;;;;;;;11.70;6.78;;;;;;;21.33;67.48;100216.31;5087613;28;20032;-60
2022/07/23 04:30:02;;;;;;;9.18;6.15;;;;;;;21.35;67.23;100221.47;5087147;28;20101;-57
2022/07/23 04:32:28;;;;;;;8.95;6.40;;;;;;;21.34;67.77;100217.94;5088798;28;20036;-60
2022/07/23 04:34:54;;;;;;;9.40;6.45;;;;;;;21.39;67.40;100222.63;5087942;28;20040;-57
2022/07/23 04:37:20;;;;;;;8.65;6.20;;;;;;;21.45;67.45;100232.47;5088418;28;20493;-59
2022/07/23 04:39:45;;;;;;;10.02;6.97;;;;;;;21.48;67.16;100231.19;5088470;28;20493;-61
2022/07/23 04:42:11;;;;;;;9.20;6.07;;;;;;;21.49;67.27;100233.63;5088499;28;20456;-61
2022/07/23 04:44:36;;;;;;;7.93;5.78;;;;;;;21.53;67.89;100250.25;5088542;28;20068;-59
2022/07/23 04:47:03;;;;;;;12.13;7.07;;;;;;;21.53;68.31;100253.78;5087128;28;20040;-60
2022/07/23 04:49:29;;;;;;;7.82;6.03;;;;;;;21.57;68.14;100256.78;5088255;28;20503;-60
2022/07/23 04:51:54;;;;;;;8.02;6.03;;;;;;;21.59;68.23;100249.25;5088372;28;20035;-59
2022/07/23 04:54:20;;;;;;;10.02;6.80;;;;;;;21.61;68.67;100258.78;5087335;28;20036;-59
2022/07/23 04:56:45;;;;;;;10.27;6.50;;;;;;;21.60;68.66;100267.16;5086949;28;20120;-61
2022/07/23 04:59:11;;;;;;;7.75;6.03;;;;;;;21.60;67.90;100270.69;5087900;28;20043;-60
2022/07/23 05:01:37;;;;;;;10.75;6.22;;;;;;;21.62;67.68;100265.84;5086878;28;20408;-58
2022/07/23 05:04:02;;;;;;;9.50;6.22;;;;;;;21.58;67.24;100269.28;5086860;28;20048;-60
2022/07/23 05:06:32;;;;;;;9.95;5.78;;;;;;;21.57;67.53;100267.63;5086751;28;20028;-58
2022/07/23 05:08:57;;;;;;;10.73;6.13;;;;;;;21.60;68.50;100289.66;5086732;28;20450;-61
2022/07/23 05:11:23;;;;;;;8.23;6.03;;;;;;;21.64;67.89;100288.09;5086566;28;20027;-58
2022/07/23 05:13:48;;;;;;;7.65;5.95;;;;;;;21.64;68.39;100289.97;5088028;28;20105;-60
2022/07/23 05:16:14;;;;;;;8.82;5.75;;;;;;;21.73;68.33;100280.38;5086560;28;20457;-61
2022/07/23 05:18:41;;;;;;;7.95;5.65;;;;;;;21.76;68.54;100276.34;5086570;28;20032;-58
2022/07/23 05:21:06;;;;;;;8.07;5.53;;;;;;;21.77;68.72;100270.69;5086038;28;20055;-59
2022/07/23 05:23:34;;;;;;;9.52;6.45;;;;;;;21.81;68.70;100266.41;5086390;28;20129;-60
2022/07/23 05:25:59;;;;;;;9.03;6.27;;;;;;;21.76;68.37;100263.63;5086403;28;20404;-60
2022/07/23 05:28:26;;;;;;;11.07;7.22;;;;;;;21.81;67.59;100274.56;5086398;28;20032;-59
2022/07/23 05:30:53;;;;;;;8.40;6.03;;;;;;;21.88;68.30;100275.22;5086157;28;20135;-59
2022/07/23 05:33:19;;;;;;;9.65;6.13;;;;;;;21.91;69.48;100258.47;5077480;28;20119;-50
2022/07/23 05:35:45;;;;;;;9.05;6.03;;;;;;;21.88;68.29;100256.22;5072747;28;20583;-50
2022/07/23 05:38:32;;;;;;;8.18;5.70;;;;;;;21.94;67.87;100260.66;5073734;28;20429;-48
2022/07/23 05:40:59;;;;;;;9.82;6.05;;;;;;;21.93;67.40;100253.59;5072467;28;20036;-53
2022/07/23 05:43:26;;;;;;;8.77;5.70;;;;;;;22.00;68.26;100255.31;5072721;28;20052;-51
2022/07/23 05:45:52;;;;;;;7.65;5.93;;;;;;;22.04;68.55;100267.31;5072694;28;20036;-49
2022/07/23 05:48:17;;;;;;;8.93;6.25;;;;;;;22.04;67.51;100276.28;5072709;28;20497;-50
2022/07/23 05:51:06;;;;;;;9.20;6.22;;;;;;;22.03;67.79;100281.94;5073021;28;20037;-51
2022/07/23 05:53:32;;;;;;;7.63;5.75;;;;;;;22.05;67.06;100290.66;5072818;28;20032;-50
2022/07/23 05:56:01;;;;;;;10.93;6.45;;;;;;;22.02;66.93;100299.28;5072493;28;20037;-52
2022/07/23 05:58:28;;;;;;;8.45;5.93;;;;;;;22.00;67.13;100294.09;5072540;28;20393;-50
2022/07/23 06:00:54;;;;;;;7.65;5.70;;;;;;;22.04;68.85;100286.28;5072082;28;20024;-51
2022/07/23 06:03:19;;;;;;;8.60;6.30;;;;;;;21.95;71.21;100289.41;5072410;28;20033;-52
2022/07/23 06:05:45;;;;;;;11.13;6.68;;;;;;;21.70;77.31;100286.28;5071953;28;20079;-53
2022/07/23 06:08:11;;;;;;;9.38;6.90;;;;;;;21.56;78.19;100283.06;5072106;28;20063;-52
2022/07/23 06:10:36;;;;;;;15.25;7.10;;;;;;;21.43;80.79;100296.13;5073366;28;20043;-53
2022/07/23 06:13:02;;;;;;;10.30;7.25;;;;;;;21.37;82.94;100312.25;5072267;28;20488;-50
2022/07/23 06:15:28;;;;;;;14.07;7.70;;;;;;;21.29;84.46;100320.78;5073283;28;20036;-52
2022/07/23 06:17:53;;;;;;;10.50;7.35;;;;;;;21.24;82.90;100342.31;5072057;28;20398;-51
2022/07/23 06:20:19;;;;;;;12.50;7.38;;;;;;;21.27;82.75;100343.75;5072921;28;20110;-51
2022/07/23 06:22:44;;;;;;;9.68;7.25;;;;;;;21.26;83.72;100337.50;5072028;28;20481;-48
2022/07/23 06:25:11;;;;;;;9.95;7.20;;;;;;;21.19;85.37;100326.00;5073312;28;20422;-47
2022/07/23 06:27:36;;;;;;;12.05;7.40;;;;;;;21.11;83.22;100307.41;5073383;28;20112;-49
2022/07/23 06:30:02;;;;;;;11.27;7.40;;;;;;;21.11;82.85;100313.63;5071573;28;20036;-48
2022/07/23 06:32:27;;;;;;;10.70;7.53;;;;;;;21.11;84.80;100329.06;5073295;28;20634;-47
2022/07/23 06:34:53;;;;;;;14.23;8.43;;;;;;;21.09;87.03;100336.63;5073155;28;20040;-48
2022/07/23 06:37:20;;;;;;;13.50;7.95;;;;;;;21.00;87.16;100343.47;5071792;28;20058;-52
2022/07/23 06:39:45;;;;;;;13.27;9.02;;;;;;;20.93;88.37;100337.34;5072825;28;20028;-47
2022/07/23 06:42:12;;;;;;;11.65;8.02;;;;;;;20.97;83.87;100320.41;5071604;28;20120;-49
2022/07/23 06:44:42;;;;;;;13.95;8.48;;;;;;;21.05;83.44;100319.19;5070767;28;20094;-48
2022/07/23 06:47:08;;;;;;;10.65;7.95;;;;;;;21.08;85.89;100322.25;5071579;28;20650;-49
2022/07/23 06:49:34;;;;;;;12.00;8.93;;;;;;;21.15;85.00;100324.81;5071080;28;20052;-51
2022/07/23 06:52:00;;;;;;;13.93;9.63;;;;;;;21.21;83.76;100318.44;5071515;28;20064;-48
2022/07/23 06:54:25;;;;;;;13.43;8.93;;;;;;;21.27;83.68;100331.03;5072754;28;20489;-47
2022/07/23 06:56:51;;;;;;;14.30;9.05;;;;;;;21.39;86.00;100339.97;5072684;28;20043;-48
2022/07/23 06:59:16;;;;;;;12.45;9.30;;;;;;;21.44;87.05;100341.91;5072386;28;20044;-46
2022/07/23 07:01:42;;;;;;;13.05;8.88;;;;;;;21.53;82.90;100348.63;5072548;28;20032;-52
2022/07/23 07:04:08;;;;;;;15.55;8.75;;;;;;;21.50;80.97;100354.50;5072525;28;20033;-53
2022/07/23 07:06:34;;;;;;;14.15;8.70;;;;;;;21.50;81.56;100349.09;5072427;28;20044;-47
2022/07/23 07:08:59;;;;;;;14.30;8.45;;;;;;;21.48;81.42;100344.97;5072307;28;20040;-50
2022/07/23 07:11:25;;;;;;;11.55;7.82;;;;;;;21.42;80.06;100349.47;5072197;28;20405;-51
2022/07/23 07:13:51;;;;;;;11.88;7.97;;;;;;;21.43;78.78;100347.59;5072232;28;20164;-52
2022/07/23 07:16:16;;;;;;;14.55;8.50;;;;;;;21.50;81.18;100340.97;5072148;28;20072;-50
2022/07/23 07:18:42;;;;;;;14.43;8.60;;;;;;;21.45;81.61;100350.88;5072157;28;20117;-48
2022/07/23 07:21:07;;;;;;;15.48;9.20;;;;;;;21.47;81.75;100348.75;5071849;28;20170;-49
2022/07/23 07:23:33;;;;;;;14.18;8.50;;;;;;;21.42;80.72;100344.06;5072174;28;20564;-51
2022/07/23 07:25:58;;;;;;;11.48;8.23;;;;;;;21.44;79.90;100349.22;5072066;28;20036;-49
2022/07/23 07:28:24;;;;;;;15.38;9.70;;;;;;;21.42;82.68;100352.19;5071929;28;20043;-52
2022/07/23 07:30:49;;;;;;;14.95;9.77;;;;;;;21.44;83.25;100350.06;5071711;28;20035;-50
2022/07/23 07:33:15;;;;;;;14.07;9.38;;;;;;;21.53;83.60;100358.63;5062781;28;20087;-51
2022/07/23 07:35:40;;;;;;;13.50;9.23;;;;;;;21.59;82.86;100363.09;5069707;28;20119;-49
2022/07/23 07:38:05;;;;;;;12.85;8.88;;;;;;;21.71;81.04;100368.44;5076645;28;20436;-49
2022/07/23 07:40:31;;;;;;;14.18;8.98;;;;;;;21.79;80.46;100360.75;5070811;28;20037;-48
2022/07/23 07:42:56;;;;;;;13.52;8.88;;;;;;;21.78;80.30;100369.94;5071493;28;20129;-48
2022/07/23 07:45:23;;;;;;;12.55;9.38;;;;;;;21.82;79.53;100364.84;5071381;28;20040;-54
2022/07/23 07:47:48;;;;;;;14.23;8.85;;;;;;;21.98;79.90;100355.91;5071502;28;20039;-51
2022/07/23 07:50:14;;;;;;;12.35;8.52;;;;;;;22.10;81.25;100363.97;5071122;28;20041;-50
2022/07/23 07:52:40;;;;;;;16.42;10.02;;;;;;;22.25;79.78;100366.16;5071249;28;20557;-52
2022/07/23 07:55:07;;;;;;;13.60;8.90;;;;;;;22.31;79.81;100371.41;5071519;28;20127;-48
2022/07/23 07:57:33;;;;;;;13.25;8.73;;;;;;;22.45;80.34;100370.00;5071128;28;20036;-50
2022/07/23 07:59:58;;;;;;;10.65;8.50;;;;;;;22.50;77.83;100373.84;5069553;28;20040;-54
2022/07/23 08:02:24;;;;;;;12.65;8.15;;;;;;;22.68;78.36;100376.28;5069631;28;20465;-57
2022/07/23 08:04:49;;;;;;;10.32;8.10;;;;;;;22.77;76.29;100382.13;5052086;28;20048;-49
2022/07/23 08:07:15;;;;;;;11.68;8.27;;;;;;;22.85;75.97;100382.50;5051056;28;20095;-48
2022/07/23 08:09:41;;;;;;;11.82;8.15;;;;;;;23.13;75.28;100386.16;5050637;28;20123;-48
2022/07/23 08:12:07;;;;;;;11.77;8.15;;;;;;;22.97;74.61;100393.28;5049895;28;20029;-49
2022/07/23 08:14:32;;;;;;;11.95;8.13;;;;;;;23.01;75.35;100403.38;5050918;28;20079;-51
2022/07/23 08:16:57;;;;;;;20.90;13.10;;;;;;;22.99;74.06;100399.28;5051069;28;20486;-49
2022/07/23 08:19:23;;;;;;;12.68;9.25;;;;;;;22.88;75.26;100402.94;5050305;28;20242;-48
2022/07/23 08:21:48;;;;;;;14.88;8.90;;;;;;;23.01;75.30;100400.66;5050869;28;20083;-48
2022/07/23 08:24:14;;;;;;;13.93;8.95;;;;;;;23.10;75.31;100398.34;5051149;28;20082;-51
2022/07/23 08:26:40;;;;;;;13.23;8.77;;;;;;;23.24;74.11;100391.47;5050885;28;20041;-51
2022/07/23 08:29:06;;;;;;;13.18;8.95;;;;;;;23.35;75.00;100395.13;5049132;28;20044;-52
2022/07/23 08:31:32;;;;;;;13.70;9.27;;;;;;;23.45;73.41;100400.66;5050920;28;20587;-48
2022/07/23 08:33:59;;;;;;;11.82;8.93;;;;;;;23.55;73.43;100398.06;5050624;28;20040;-49
2022/07/23 08:36:27;;;;;;;15.65;9.70;;;;;;;23.59;71.93;100400.28;5050624;28;20043;-50
2022/07/23 08:38:53;;;;;;;12.43;8.27;;;;;;;23.72;74.50;100408.06;5050620;28;20037;-51
2022/07/23 08:41:19;;;;;;;13.20;9.07;;;;;;;23.77;72.23;100394.53;5050553;28;20052;-52
2022/07/23 08:43:45;;;;;;;12.63;9.68;;;;;;;23.83;72.41;100396.22;5050777;28;20037;-49
2022/07/23 08:46:12;;;;;;;12.00;8.48;;;;;;;24.02;73.06;100397.47;5050622;28;20040;-50
2022/07/23 08:48:38;;;;;;;12.55;8.55;;;;;;;24.19;70.46;100399.25;5050270;28;20045;-52
2022/07/23 08:51:05;;;;;;;11.65;8.18;;;;;;;24.43;66.64;100408.72;5050272;28;20478;-51
2022/07/23 08:53:33;;;;;;;11.55;8.43;;;;;;;24.62;65.64;100409.97;5050597;28;20025;-63
2022/07/23 08:56:02;;;;;;;14.57;9.23;;;;;;;24.68;64.23;100407.28;5050688;28;20037;-63
2022/07/23 08:58:29;;;;;;;9.50;7.85;;;;;;;24.73;63.16;100405.41;5050212;28;20041;-65
2022/07/23 09:00:58;;;;;;;11.45;7.45;;;;;;;24.89;64.10;100404.41;5050043;28;20029;-66
2022/07/23 09:03:27;;;;;;;11.82;7.53;;;;;;;25.16;65.22;100396.09;5050468;28;20095;-64
2022/07/23 09:05:53;;;;;;;13.73;8.65;;;;;;;25.33;63.22;100393.19;5050697;28;20375;-65
2022/07/23 09:08:21;;;;;;;10.95;7.82;;;;;;;25.44;64.45;100392.16;5052216;28;20052;-64
2022/07/23 09:10:51;;;;;;;10.57;8.30;;;;;;;25.47;64.04;100398.97;5054058;28;20037;-65
2022/07/23 09:13:24;;;;;;;14.88;8.40;;;;;;;25.60;64.67;100401.19;5054284;28;20041;-64
2022/07/23 09:15:51;;;;;;;14.43;8.55;;;;;;;25.76;63.54;100398.53;5054298;28;20033;-66
2022/07/23 09:18:17;;;;;;;10.55;8.07;;;;;;;25.94;63.01;100385.16;5053936;28;20063;-66
2022/07/23 09:20:43;;;;;;;11.38;8.43;;;;;;;26.18;58.56;100388.19;5053744;28;20323;-66
2022/07/23 09:23:09;;;;;;;11.77;8.00;;;;;;;26.22;57.51;100391.19;5054233;28;20044;-64
2022/07/23 09:25:34;;;;;;;9.68;7.15;;;;;;;26.10;57.83;100385.19;5054218;28;20037;-66
2022/07/23 09:28:02;;;;;;;9.57;7.45;;;;;;;26.18;57.56;100384.63;5053738;28;20076;-65
2022/07/23 09:30:32;;;;;;;9.57;7.40;;;;;;;26.49;58.41;100385.47;5053304;28;20040;-50
2022/07/23 09:33:12;;;;;;;11.63;7.53;;;;;;;26.75;57.70;100388.97;5053648;28;20041;-52
2022/07/23 09:35:44;;;;;;;10.85;7.95;;;;;;;26.96;55.88;100387.81;5053880;28;20044;-53
2022/07/23 09:38:09;;;;;;;10.00;7.75;;;;;;;27.14;54.92;100385.59;5052239;28;20525;-56
2022/07/23 09:40:35;;;;;;;16.10;8.10;;;;;;;27.14;54.05;100383.69;5053314;28;20029;-53
2022/07/23 09:43:00;;;;;;;9.02;7.30;;;;;;;27.49;56.84;100381.88;5053823;28;20048;-58
2022/07/23 09:45:25;;;;;;;11.32;7.60;;;;;;;27.57;54.84;100373.06;5053745;28;20041;-53
2022/07/23 09:48:10;;;;;;;9.48;7.55;;;;;;;27.70;52.64;100374.38;5053457;28;20032;-53
2022/07/23 09:50:35;;;;;;;8.70;7.20;;;;;;;27.74;52.16;100376.28;5052979;28;20124;-55
2022/07/23 09:53:01;;;;;;;9.80;7.47;;;;;;;27.74;54.55;100378.19;5053474;28;20117;-59
2022/07/23 09:55:39;;;;;;;8.30;6.65;;;;;;;27.75;52.97;100377.91;5053697;28;20166;-56
2022/07/23 09:58:12;;;;;;;9.40;7.10;;;;;;;28.12;52.79;100377.34;5053374;28;20041;-63
2022/07/23 10:00:38;;;;;;;8.70;7.40;;;;;;;28.39;50.19;100376.88;5052856;28;20401;-63
2022/07/23 10:03:05;;;;;;;7.32;6.47;;;;;;;28.64;49.44;100373.06;5053433;28;20036;-64
2022/07/23 10:05:43;;;;;;;9.18;6.85;;;;;;;28.97;50.94;100380.69;5053431;28;20442;-62
2022/07/23 10:08:28;;;;;;;7.35;6.55;;;;;;;29.09;48.82;100376.41;5053578;28;20099;-63
2022/07/23 10:11:26;;;;;;;7.95;5.90;;;;;;;29.17;46.97;100383.16;5052851;28;20102;-63
2022/07/23 10:14:04;;;;;;;7.97;6.60;;;;;;;29.26;46.31;100389.63;5036734;28;20127;-64
2022/07/23 10:16:40;;;;;;;7.05;6.35;;;;;;;29.52;46.55;100381.91;5052065;28;20117;-62
2022/07/23 10:19:06;;;;;;;11.20;6.82;;;;;;;29.58;49.17;100380.72;5053181;28;20477;-63
2022/07/23 10:21:45;;;;;;;11.93;7.22;;;;;;;29.91;45.54;100375.28;5053241;28;20120;-63
2022/07/23 10:24:30;;;;;;;8.45;6.38;;;;;;;29.57;44.93;100381.03;5053230;28;20041;-63
2022/07/23 10:27:28;;;;;;;8.32;6.05;;;;;;;29.06;45.29;100387.13;5022277;28;20049;-63
2022/07/23 10:30:11;;;;;;;8.27;6.32;;;;;;;29.17;46.71;100383.16;5027968;28;20486;-62
2022/07/23 10:32:51;;;;;;;7.05;5.82;;;;;;;29.26;46.04;100381.41;5053186;28;20636;-62
2022/07/23 10:35:43;;;;;;;8.88;6.35;;;;;;;29.78;48.78;100382.34;5052057;28;20234;-63
2022/07/23 10:38:27;;;;;;;6.80;5.70;;;;;;;30.13;45.28;100371.94;5052982;28;20119;-63
2022/07/23 10:40:57;;;;;;;6.70;5.93;;;;;;;30.41;45.05;100378.31;5052449;28;20036;-63
2022/07/23 10:43:23;;;;;;;6.75;5.65;;;;;;;30.58;41.93;100383.22;5052891;28;20037;-62
2022/07/23 10:45:49;;;;;;;7.40;5.60;;;;;;;30.59;42.36;100382.94;5052811;28;20028;-48
2022/07/23 10:48:20;;;;;;;7.85;6.10;;;;;;;30.36;41.24;100376.47;5052892;28;20036;-62
2022/07/23 10:51:10;;;;;;;6.20;5.60;;;;;;;30.53;42.00;100375.91;5052683;28;20043;-62
2022/07/23 10:53:51;;;;;;;6.70;5.25;;;;;;;31.13;40.81;100370.34;5070309;28;20028;-63
2022/07/23 10:56:56;;;;;;;6.72;5.57;;;;;;;31.13;42.30;100372.28;5072123;28;20436;-62
2022/07/23 10:59:21;;;;;;;7.05;5.72;;;;;;;31.72;40.72;100367.69;5063184;28;20163;-62
2022/07/23 11:01:47;;;;;;;6.22;5.63;;;;;;;32.06;39.54;100370.72;5071870;28;20048;-63
2022/07/23 11:04:13;;;;;;;6.63;5.97;;;;;;;31.72;42.73;100359.44;5072355;28;20047;-62
2022/07/23 11:06:50;;;;;;;7.57;5.23;;;;;;;31.68;39.69;100366.66;5071948;28;20397;-62
2022/07/23 11:09:39;;;;;;;6.10;5.57;;;;;;;31.64;39.78;100377.50;5071301;28;20401;-62
2022/07/23 11:12:13;;;;;;;6.93;5.25;;;;;;;31.72;39.05;100371.25;5071908;28;20040;-63
2022/07/23 11:15:08;;;;;;;7.18;5.35;;;;;;;32.23;40.10;100371.97;5072356;28;20082;-62
2022/07/23 11:17:43;;;;;;;6.75;5.38;;;;;;;32.36;38.45;100373.88;5066714;28;20636;-62
2022/07/23 11:20:17;;;;;;;6.65;6.05;;;;;;;32.52;36.97;100375.06;5070819;28;20068;-63
2022/07/23 11:22:42;;;;;;;7.63;6.38;;;;;;;31.93;39.51;100373.53;5051851;28;20044;-63
2022/07/23 11:25:09;;;;;;;6.90;6.30;;;;;;;32.23;38.44;100371.97;5052059;28;20029;-62
2022/07/23 11:27:41;;;;;;;;;;;;;;;32.14;38.35;100371.91;5052542;28;20548;-62
2022/07/23 11:30:08;;;;;;;7.18;5.95;;;;;;;31.72;39.50;100367.69;5050526;28;19928;-62
2022/07/23 11:32:38;;;;;;;8.05;6.10;;;;;;;31.45;40.59;100372.16;5051728;28;20175;-62
2022/07/23 11:35:28;;;;;;;6.30;5.70;;;;;;;31.24;42.55;100369.03;5051620;28;20036;-63
2022/07/23 11:38:02;;;;;;;6.45;5.60;;;;;;;31.26;42.49;100376.97;5050392;28;20033;-62
2022/07/23 11:40:27;;;;;;;6.13;5.53;;;;;;;30.99;43.31;100364.03;5050873;28;20040;-62
2022/07/23 11:43:06;;;;;;;5.47;4.97;;;;;;;31.39;41.96;100372.56;5051586;28;20033;-63
2022/07/23 11:45:35;;;;;;;7.35;6.65;;;;;;;31.68;41.14;100366.66;5051111;28;20048;-62
2022/07/23 11:48:01;;;;;;;5.68;5.10;;;;;;;31.54;40.31;100356.53;5051510;28;20060;-62
2022/07/23 11:50:26;;;;;;;7.18;6.47;;;;;;;32.14;40.79;100358.13;5050425;28;20064;-63
2022/07/23 11:52:53;;;;;;;6.57;5.87;;;;;;;32.76;39.07;100360.91;5051490;28;20466;-63
2022/07/23 11:55:19;;;;;;;6.13;5.53;;;;;;;32.34;39.12;100360.41;5051037;28;20398;-63
2022/07/23 11:57:45;;;;;;;5.30;4.80;;;;;;;32.37;39.63;100364.47;5051323;28;20048;-62
2022/07/23 12:00:11;;;;;;;5.70;5.20;;;;;;;32.61;39.10;100364.09;5032629;28;20136;-63
2022/07/23 12:02:41;;;;;;;5.60;5.10;;;;;;;32.22;38.32;100365.66;5051460;28;20087;-63
2022/07/23 12:05:10;;;;;;;6.78;5.72;;;;;;;32.70;38.27;100355.88;5050885;28;20037;-63
2022/07/23 12:07:38;;;;;;;5.80;5.00;;;;;;;32.16;38.85;100349.56;5050613;28;20029;-63
2022/07/23 12:10:14;;;;;;;5.32;4.82;;;;;;;32.62;39.16;100352.75;5050809;28;20032;-62
2022/07/23 12:12:42;;;;;;;5.72;5.15;;;;;;;32.81;38.05;100338.72;5050292;28;20064;-63
2022/07/23 12:15:09;;;;;;;6.78;5.05;;;;;;;33.01;37.96;100337.34;5051203;28;20032;-63
2022/07/23 12:17:37;;;;;;;5.88;5.28;;;;;;;33.63;35.31;100330.75;5051171;28;20593;-62
2022/07/23 12:20:05;;;;;;;6.03;5.00;;;;;;;33.59;35.61;100327.03;5050903;28;20056;-63
2022/07/23 12:22:39;;;;;;;7.07;5.38;;;;;;;33.79;35.66;100337.44;5051129;28;20445;-63
2022/07/23 12:25:09;;;;;;;5.70;5.10;;;;;;;33.89;34.99;100333.50;5051232;28;20037;-63
2022/07/23 12:27:35;;;;;;;7.45;4.82;;;;;;;34.22;34.30;100333.78;5051053;28;20029;-63
2022/07/23 12:30:17;;;;;;;6.33;4.67;;;;;;;33.90;34.74;100326.81;5049774;28;20118;-62
2022/07/23 12:32:47;;;;;;;4.95;4.50;;;;;;;33.85;34.82;100335.31;5051146;28;20053;-62
2022/07/23 12:35:13;;;;;;;5.20;4.45;;;;;;;34.07;33.88;100332.34;5051116;28;20041;-62
2022/07/23 12:37:44;;;;;;;5.00;4.53;;;;;;;34.15;34.05;100326.00;5051167;28;20056;-62
2022/07/23 12:40:26;;;;;;;5.20;4.70;;;;;;;34.52;33.58;100323.63;5050660;28;20032;-63
2022/07/23 12:42:58;;;;;;;5.63;4.32;;;;;;;35.01;33.26;100327.63;5051975;28;20056;-62
2022/07/23 12:45:24;;;;;;;5.32;4.82;;;;;;;35.20;31.70;100326.34;5053669;28;20036;-62
2022/07/23 12:48:03;;;;;;;5.32;4.80;;;;;;;35.03;32.00;100317.03;5054986;28;20056;-62
2022/07/23 12:50:39;;;;;;;5.78;4.85;;;;;;;35.19;31.48;100320.00;5054638;28;20039;-62
2022/07/23 12:53:42;;;;;;;5.50;4.10;;;;;;;35.23;31.81;100320.16;5055010;28;20037;-63
2022/07/23 12:56:26;;;;;;;5.25;4.75;;;;;;;35.40;30.94;100320.00;5042944;28;20056;-63
2022/07/23 12:58:57;;;;;;;5.13;4.57;;;;;;;35.22;31.95;100324.91;5054682;28;20490;-62
2022/07/23 13:01:24;;;;;;;6.38;4.63;;;;;;;34.87;32.95;100324.25;5054585;28;20033;-63
2022/07/23 13:03:55;;;;;;;5.60;4.65;;;;;;;34.50;31.95;100331.47;5054704;28;20025;-63
2022/07/23 13:06:20;;;;;;;4.70;4.30;;;;;;;35.08;32.01;100318.78;5054681;28;20386;-63
2022/07/23 13:08:46;;;;;;;7.10;5.73;;;;;;;35.14;31.02;100314.66;5053124;28;20146;-62
2022/07/23 13:11:11;;;;;;;5.73;4.83;;;;;;;34.33;31.68;100314.91;5054395;28;20522;-62
2022/07/23 13:13:36;;;;;;;5.70;5.00;;;;;;;34.65;32.36;100316.25;5054675;28;20037;-64
2022/07/23 13:16:03;;;;;;;5.63;5.10;;;;;;;34.81;32.39;100311.75;5054427;28;20045;-64
2022/07/23 13:18:28;;;;;;;5.50;4.88;;;;;;;35.48;30.77;100315.59;5054553;28;20037;-64
2022/07/23 13:20:55;;;;;;;5.00;4.60;;;;;;;35.12;32.44;100319.75;5053880;28;20402;-64
2022/07/23 13:23:21;;;;;;;7.25;4.90;;;;;;;35.03;31.42;100313.47;5054270;28;20097;-64
2022/07/23 13:25:47;;;;;;;5.40;4.65;;;;;;;35.02;33.33;100320.97;5054300;28;20037;-64
2022/07/23 13:28:15;;;;;;;5.07;4.55;;;;;;;34.53;33.22;100323.28;5054396;28;20064;-64
2022/07/23 13:30:41;;;;;;;4.95;4.45;;;;;;;34.33;32.29;100310.19;5054114;28;20043;-64
2022/07/23 13:33:07;;;;;;;5.70;5.20;;;;;;;34.23;34.07;100305.84;5054284;28;20489;-64
2022/07/23 13:35:34;;;;;;;6.60;4.50;;;;;;;34.03;33.81;100312.03;5054157;28;20044;-64
2022/07/23 13:38:00;;;;;;;5.60;4.53;;;;;;;33.29;35.61;100310.25;5054067;28;20114;-64
2022/07/23 13:40:26;;;;;;;4.85;4.45;;;;;;;32.85;35.66;100323.13;5053739;28;20510;-64
2022/07/23 13:42:51;;;;;;;4.73;4.33;;;;;;;32.64;35.59;100311.88;5053923;28;20086;-64
2022/07/23 13:45:17;;;;;;;5.90;4.80;;;;;;;32.81;36.49;100311.13;5053902;28;20041;-63
2022/07/23 13:47:42;;;;;;;5.73;4.50;;;;;;;32.58;35.67;100318.66;5054273;28;20490;-64
2022/07/23 13:50:08;;;;;;;5.60;4.70;;;;;;;32.12;37.38;100317.13;5053645;28;20131;-63
2022/07/23 13:52:34;;;;;;;5.17;4.70;;;;;;;32.04;36.66;100314.34;5053881;28;20112;-64
2022/07/23 13:55:08;;;;;;;5.63;4.83;;;;;;;31.63;38.97;100311.75;5053296;28;20098;-64
2022/07/23 13:57:34;;;;;;;5.55;4.78;;;;;;;31.54;37.75;100304.22;5053684;28;20053;-63
2022/07/23 14:00:00;;;;;;;5.63;5.13;;;;;;;31.24;37.99;100310.47;5053426;28;20025;-64
2022/07/23 14:02:25;;;;;;;5.25;4.75;;;;;;;31.33;38.47;100312.16;5053696;28;20140;-63
2022/07/23 14:04:51;;;;;;;5.30;4.90;;;;;;;31.18;38.00;100314.41;5053466;28;20051;-63
2022/07/23 14:07:17;;;;;;;5.68;4.82;;;;;;;31.31;37.47;100308.91;5053558;28;20068;-64
2022/07/23 14:09:42;;;;;;;5.10;4.70;;;;;;;31.42;37.75;100312.22;5053146;28;20033;-64
2022/07/23 14:12:08;;;;;;;5.68;4.80;;;;;;;31.46;38.08;100301.41;5053456;28;20033;-64
2022/07/23 14:14:34;;;;;;;5.75;4.82;;;;;;;31.10;38.24;100306.88;5053543;28;20047;-64
2022/07/23 14:16:59;;;;;;;6.28;5.22;;;;;;;30.89;37.06;100304.56;5052045;28;20394;-64
2022/07/23 14:19:25;;;;;;;5.05;4.55;;;;;;;31.00;37.65;100297.72;5052984;28;20037;-63
2022/07/23 14:21:50;;;;;;;5.10;4.60;;;;;;;31.15;38.49;100295.75;5052867;28;20127;-64
2022/07/23 14:24:16;;;;;;;5.00;4.60;;;;;;;30.73;38.91;100289.53;5068258;28;20149;-63
2022/07/23 14:26:41;;;;;;;5.45;4.90;;;;;;;30.91;39.75;100296.84;5073131;28;20040;-64
2022/07/23 14:29:07;;;;;;;6.28;5.00;;;;;;;31.12;38.92;100285.38;5072807;28;20041;-64
2022/07/23 14:31:32;;;;;;;7.38;4.57;;;;;;;31.24;38.31;100289.25;5073115;28;20052;-63
2022/07/23 14:33:59;;;;;;;5.95;4.63;;;;;;;31.43;39.54;100282.75;5073011;28;20040;-63
2022/07/23 14:36:25;;;;;;;6.47;4.72;;;;;;;31.51;38.64;100290.28;5073035;28;20040;-63
2022/07/23 14:38:51;;;;;;;5.35;4.78;;;;;;;31.55;37.77;100292.09;5071424;28;20037;-63
2022/07/23 14:41:16;;;;;;;6.30;5.03;;;;;;;31.51;39.01;100287.53;5072754;28;20046;-64
2022/07/23 14:43:42;;;;;;;5.70;4.43;;;;;;;31.58;36.56;100296.97;5072751;28;20037;-63
2022/07/23 14:46:07;;;;;;;5.55;4.78;;;;;;;31.62;37.04;100294.41;5072577;28;20052;-63
2022/07/23 14:48:33;;;;;;;6.53;5.20;;;;;;;31.43;37.90;100291.84;5072787;28;20036;-63
2022/07/23 14:50:58;;;;;;;5.03;4.57;;;;;;;31.29;37.25;100307.56;5072648;28;20029;-63
2022/07/23 14:53:24;;;;;;;5.43;4.88;;;;;;;31.20;37.29;100303.91;5072534;28;20043;-63
2022/07/23 14:55:49;;;;;;;4.90;4.50;;;;;;;31.22;37.60;100298.91;5072482;28;20066;-63
2022/07/23 14:58:15;;;;;;;5.30;4.88;;;;;;;31.32;37.25;100294.03;5072517;28;20044;-63
2022/07/23 15:00:40;;;;;;;5.07;4.68;;;;;;;31.37;37.74;100301.34;5072194;28;20040;-63
2022/07/23 15:03:05;;;;;;;5.70;4.87;;;;;;;31.40;37.17;100291.66;5072404;28;20063;-63
2022/07/23 15:05:31;;;;;;;6.32;5.18;;;;;;;31.37;38.30;100292.28;5071453;28;20135;-64
2022/07/23 15:07:56;;;;;;;5.75;5.15;;;;;;;31.43;37.35;100286.34;5072671;28;20040;-63
2022/07/23 15:10:22;;;;;;;5.40;4.90;;;;;;;31.42;37.40;100297.66;5070685;28;20033;-63
2022/07/23 15:12:48;;;;;;;5.68;4.82;;;;;;;31.45;38.22;100291.53;5072324;28;20024;-63
2022/07/23 15:15:13;;;;;;;5.82;5.03;;;;;;;31.44;38.07;100295.41;5071946;28;20032;-64
2022/07/23 15:17:39;;;;;;;5.55;5.05;;;;;;;31.39;38.30;100301.03;5072216;28;20090;-64
2022/07/23 15:20:05;;;;;;;5.57;4.97;;;;;;;31.36;38.36;100296.13;5071670;28;20033;-64
2022/07/23 15:22:30;;;;;;;6.27;5.03;;;;;;;31.39;37.79;100292.78;5071891;28;20486;-64
2022/07/23 15:24:56;;;;;;;5.68;5.13;;;;;;;30.99;38.05;100295.28;5071970;28;20044;-67
2022/07/23 15:27:21;;;;;;;7.10;5.43;;;;;;;31.01;39.78;100299.34;5071947;28;20109;-67
2022/07/23 15:29:47;;;;;;;8.82;5.57;;;;;;;31.05;38.91;100296.81;5071675;28;20090;-67
2022/07/23 15:32:12;;;;;;;5.43;4.93;;;;;;;31.02;39.35;100295.47;5072035;28;20044;-67
2022/07/23 15:34:38;;;;;;;6.22;5.60;;;;;;;30.94;39.53;100303.66;5071868;28;20036;-67
2022/07/23 15:37:07;;;;;;;6.30;5.70;;;;;;;30.70;39.57;100301.13;5071788;28;20588;-67
2022/07/23 15:39:32;;;;;;;6.38;5.50;;;;;;;30.76;39.83;100297.13;5071525;28;20040;-67
2022/07/23 15:41:59;;;;;;;7.32;6.72;;;;;;;30.67;39.09;100299.81;5071717;28;20044;-67
2022/07/23 15:44:25;;;;;;;6.40;5.75;;;;;;;30.62;40.23;100299.06;5071705;28;20071;-67
2022/07/23 15:46:50;;;;;;;5.97;5.38;;;;;;;30.58;39.64;100298.84;5071556;28;20409;-68
2022/07/23 15:49:16;;;;;;;6.25;5.50;;;;;;;30.55;39.98;100299.47;5071237;28;20053;-67